Tuesday, April 21, 2015

  Over 48,494,314 pages visited!

GMT:
13:04
PACIFIC:
6:04:34 AM
MOUNTAIN:
7:04:34 AM

CENTRAL:
8:04:34 AM

EASTERN:
9:04:34 AM
ATLANTIC:
10:04:34 AM
NEWFOUNDLAND:
10:34:34 AM
 

 


Watches/Warnings
Current Conditions
Radar/Satellite
Lightning Images


Current Weather Conditions For TORONTO PEARSON,ON

 


A Few Clouds
 

Temperature: 08C / 46F
Dew Point: 02 C / 36F
Humidity: 66 %
Pressure: 1001.1 mbs (29.56 inches)
Visibility: 24.1 kms (15 SM)
Wind Direction: SW (240)
Wind Speed: 24.1 Km/h (15 MPH)
Max Wind Gust: 42.6 Km/h (26.5 MPH)
Humidex: N/A
WindChill: N/A
    

Observation Information

Date/Time: Tuesday, April 21, 2015 @ 12:00Z
Local Time:
Metar Coded: CYYZ 211200Z 24013G23KT 15SM FEW035 FEW085 08/02 A2956 RMK CU1AC1 AC TR SLP011

 

 

                   1997-2015 The Ontario Weather Page